Time;durP1;ratioP1;P1;durP2;ratioP2;P2;SDS_P1;SDS_P2;PMS_P1;PMS_P2;Temp;Humidity;BMP_temperature;BMP_pressure;BME280_temperature;BME280_humidity;BME280_pressure;Samples;Min_cycle;Max_cycle;Signal;HPM_P1;HPM_P2
2022/04/23 00:00:29;;;;;;;12.13;10.83;;;11.80;99.90;;;;;;5072069;28;20224;-56
2022/04/23 00:02:58;;;;;;;11.33;10.10;;;11.70;99.90;;;;;;5071855;28;20209;-56
2022/04/23 00:05:25;;;;;;;11.00;9.90;;;11.70;99.90;;;;;;5072025;28;20212;-56
2022/04/23 00:07:51;;;;;;;11.77;10.27;;;11.70;99.90;;;;;;5071991;28;20208;-56
2022/04/23 00:10:18;;;;;;;12.13;10.03;;;11.70;99.90;;;;;;5071633;28;20655;-56
2022/04/23 00:12:46;;;;;;;13.10;9.80;;;11.60;99.90;;;;;;5071471;28;20232;-56
2022/04/23 00:15:14;;;;;;;13.57;10.40;;;11.60;99.90;;;;;;5072111;28;20213;-56
2022/04/23 00:17:43;;;;;;;11.40;10.30;;;11.60;99.90;;;;;;5071789;28;20236;-56
2022/04/23 00:20:11;;;;;;;13.20;9.90;;;11.60;99.90;;;;;;5071562;28;20225;-56
2022/04/23 00:22:38;;;;;;;11.40;10.23;;;11.60;99.90;;;;;;5071517;28;20247;-56
2022/04/23 00:25:05;;;;;;;11.20;10.10;;;11.60;99.90;;;;;;5071574;28;20232;-57
2022/04/23 00:27:32;;;;;;;11.53;10.33;;;11.50;99.90;;;;;;5071686;28;20204;-56
2022/04/23 00:29:58;;;;;;;11.33;10.13;;;11.50;99.90;;;;;;5071754;28;20211;-56
2022/04/23 00:32:26;;;;;;;10.70;9.60;;;11.50;99.90;;;;;;5071678;28;20227;-56
2022/04/23 00:34:53;;;;;;;13.87;10.77;;;11.40;99.90;;;;;;5072218;28;20217;-56
2022/04/23 00:37:20;;;;;;;13.03;11.57;;;11.40;99.90;;;;;;5075670;28;20224;-57
2022/04/23 00:39:48;;;;;;;11.13;10.00;;;11.40;99.90;;;;;;5075251;28;20628;-56
2022/04/23 00:42:15;;;;;;;11.43;10.33;;;11.30;99.90;;;;;;5075598;28;20205;-56
2022/04/23 00:44:41;;;;;;;14.37;11.60;;;11.20;99.90;;;;;;5075051;28;20622;-56
2022/04/23 00:47:09;;;;;;;10.57;9.33;;;11.20;99.90;;;;;;5075219;28;20730;-56
2022/04/23 00:49:37;;;;;;;10.70;8.67;;;11.10;99.90;;;;;;5075357;28;20211;-56
2022/04/23 00:52:04;;;;;;;10.33;9.23;;;11.20;99.90;;;;;;5075072;28;20228;-56
2022/04/23 00:54:32;;;;;;;9.57;8.57;;;11.20;99.90;;;;;;5074735;28;20254;-56
2022/04/23 00:56:59;;;;;;;10.00;9.00;;;11.20;99.90;;;;;;5075296;28;20299;-56
2022/04/23 00:59:28;;;;;;;11.53;9.00;;;11.20;99.90;;;;;;5075210;28;20209;-56
2022/04/23 01:01:55;;;;;;;9.73;8.73;;;11.20;99.90;;;;;;5075438;28;20225;-57
2022/04/23 01:04:21;;;;;;;10.37;9.10;;;11.20;99.90;;;;;;5074917;28;20205;-56
2022/04/23 01:06:49;;;;;;;11.73;8.80;;;11.10;99.90;;;;;;5074790;28;20208;-56
2022/04/23 01:09:16;;;;;;;10.00;9.00;;;11.10;99.90;;;;;;5075193;28;20224;-57
2022/04/23 01:11:43;;;;;;;11.37;9.77;;;11.10;99.90;;;;;;5075191;28;20286;-57
2022/04/23 01:14:10;;;;;;;9.37;8.43;;;11.00;99.90;;;;;;5075078;28;20235;-56
2022/04/23 01:16:37;;;;;;;9.70;8.67;;;11.00;99.90;;;;;;5075035;28;20213;-57
2022/04/23 01:19:04;;;;;;;8.87;7.97;;;11.00;99.90;;;;;;5074790;28;20672;-57
2022/04/23 01:21:33;;;;;;;9.23;8.33;;;10.90;99.90;;;;;;5074571;28;20720;-56
2022/04/23 01:24:01;;;;;;;8.97;7.97;;;10.90;99.90;;;;;;5074608;28;20576;-56
2022/04/23 01:26:29;;;;;;;9.13;8.23;;;10.80;99.90;;;;;;5074570;28;20900;-56
2022/04/23 01:28:57;;;;;;;8.70;7.80;;;10.80;99.90;;;;;;5074510;28;20236;-56
2022/04/23 01:31:24;;;;;;;10.57;8.57;;;10.80;99.90;;;;;;5074652;28;20324;-56
2022/04/23 01:33:51;;;;;;;9.60;8.57;;;10.80;99.90;;;;;;5074173;28;20232;-57
2022/04/23 01:36:17;;;;;;;8.93;8.03;;;10.80;99.90;;;;;;5074543;28;20213;-56
2022/04/23 01:38:46;;;;;;;10.63;8.13;;;10.80;99.90;;;;;;5074536;28;20208;-56
2022/04/23 01:41:13;;;;;;;9.13;8.23;;;10.80;99.90;;;;;;5074509;28;20221;-56
2022/04/23 01:43:41;;;;;;;8.63;7.73;;;10.70;99.90;;;;;;5074224;28;20668;-56
2022/04/23 01:46:08;;;;;;;10.23;8.13;;;10.70;99.90;;;;;;5073742;28;20205;-56
2022/04/23 01:48:34;;;;;;;9.70;8.20;;;10.70;99.90;;;;;;5073837;28;20204;-56
2022/04/23 01:51:01;;;;;;;8.30;7.40;;;10.60;99.90;;;;;;5096866;22;20331;-56
2022/04/23 01:53:28;;;;;;;8.50;7.70;;;10.60;99.90;;;;;;5073267;28;20312;-56
2022/04/23 01:55:56;;;;;;;8.93;7.73;;;10.50;99.90;;;;;;5074620;28;20676;-56
2022/04/23 01:58:23;;;;;;;9.43;7.67;;;10.40;99.90;;;;;;5074789;28;20201;-56
2022/04/23 02:00:50;;;;;;;9.23;7.37;;;10.40;99.90;;;;;;5074095;28;20274;-57
2022/04/23 02:03:17;;;;;;;7.73;6.87;;;10.30;99.90;;;;;;5073687;28;20291;-57
2022/04/23 02:05:44;;;;;;;8.57;7.40;;;10.30;99.90;;;;;;5074055;28;20213;-57
2022/04/23 02:08:15;;;;;;;7.90;7.20;;;10.20;99.90;;;;;;5073558;28;20615;-57
2022/04/23 02:10:42;;;;;;;9.10;8.20;;;10.20;99.90;;;;;;5073678;28;20243;-57
2022/04/23 02:13:10;;;;;;;9.40;8.40;;;10.20;99.90;;;;;;5073122;28;20227;-57
2022/04/23 02:15:37;;;;;;;9.37;7.20;;;10.30;99.90;;;;;;5073320;28;20649;-57
2022/04/23 02:18:04;;;;;;;8.00;7.20;;;10.30;99.90;;;;;;5073653;28;20635;-57
2022/04/23 02:20:31;;;;;;;7.90;7.10;;;10.30;99.90;;;;;;5073512;28;20225;-57
2022/04/23 02:22:58;;;;;;;9.17;7.50;;;10.30;99.90;;;;;;5073106;28;20628;-57
2022/04/23 02:25:25;;;;;;;7.73;7.03;;;10.30;99.90;;;;;;5073342;28;20250;-57
2022/04/23 02:27:52;;;;;;;8.87;8.00;;;10.20;99.90;;;;;;5073296;28;20671;-57
2022/04/23 02:30:22;;;;;;;11.47;7.80;;;10.20;99.90;;;;;;5073036;28;20205;-57
2022/04/23 02:32:49;;;;;;;10.67;9.03;;;10.20;99.90;;;;;;5073063;28;20229;-57
2022/04/23 02:35:17;;;;;;;10.40;9.37;;;10.20;99.90;;;;;;5073216;28;20300;-57
2022/04/23 02:37:44;;;;;;;9.10;8.20;;;10.00;99.90;;;;;;5073089;28;20216;-56
2022/04/23 02:40:11;;;;;;;8.03;7.33;;;10.00;99.90;;;;;;5073111;28;20212;-57
2022/04/23 02:42:39;;;;;;;8.30;7.50;;;10.00;99.90;;;;;;5072859;28;20239;-57
2022/04/23 02:45:07;;;;;;;8.07;7.37;;;10.00;99.90;;;;;;5072863;28;20209;-57
2022/04/23 02:47:44;;;;;;;8.47;7.00;;;9.90;99.90;;;;;;5073176;28;20204;-57
2022/04/23 02:50:11;;;;;;;8.40;7.60;;;9.80;99.90;;;;;;5072684;28;20208;-57
2022/04/23 02:52:38;;;;;;;7.73;6.93;;;9.70;99.90;;;;;;5072617;28;20205;-57
2022/04/23 02:55:06;;;;;;;9.10;8.13;;;9.60;99.90;;;;;;5072940;28;20252;-59
2022/04/23 02:57:33;;;;;;;9.00;8.10;;;9.60;99.90;;;;;;5072387;28;20239;-57
2022/04/23 03:00:00;;;;;;;8.27;7.57;;;9.70;99.90;;;;;;5072613;28;20209;-57
2022/04/23 03:02:28;;;;;;;8.40;7.60;;;9.70;99.90;;;;;;5072702;28;20227;-57
2022/04/23 03:04:56;;;;;;;8.50;7.60;;;9.60;99.90;;;;;;5072529;28;20236;-57
2022/04/23 03:07:22;;;;;;;8.47;7.57;;;9.60;99.90;;;;;;5072684;28;20208;-57
2022/04/23 03:09:49;;;;;;;8.77;7.90;;;9.60;99.90;;;;;;5072468;28;20205;-57
2022/04/23 03:12:15;;;;;;;7.97;7.17;;;9.60;99.90;;;;;;5072629;28;20229;-57
2022/04/23 03:14:43;;;;;;;8.37;7.57;;;9.60;99.90;;;;;;5072355;28;20623;-57
2022/04/23 03:17:09;;;;;;;8.43;7.60;;;9.60;99.90;;;;;;5072628;28;20205;-57
2022/04/23 03:19:36;;;;;;;7.67;6.90;;;9.50;99.90;;;;;;5072468;28;20211;-57
2022/04/23 03:22:04;;;;;;;9.20;7.97;;;9.60;99.90;;;;;;5072592;28;20235;-57
2022/04/23 03:24:31;;;;;;;8.57;7.77;;;9.60;99.90;;;;;;5071964;28;20201;-57
2022/04/23 03:26:58;;;;;;;11.77;8.13;;;9.60;99.90;;;;;;5072437;28;20208;-57
2022/04/23 03:29:24;;;;;;;8.90;8.03;;;9.50;99.90;;;;;;5072436;28;20205;-56
2022/04/23 03:31:51;;;;;;;8.87;8.07;;;9.50;99.90;;;;;;5072152;28;20286;-57
2022/04/23 03:34:19;;;;;;;8.83;7.93;;;9.50;99.90;;;;;;5071779;28;20225;-57
2022/04/23 03:36:45;;;;;;;8.70;7.80;;;9.40;99.90;;;;;;5071949;28;20228;-57
2022/04/23 03:39:14;;;;;;;8.77;7.87;;;9.40;99.90;;;;;;5071955;28;20205;-57
2022/04/23 03:41:41;;;;;;;8.93;8.13;;;9.30;99.90;;;;;;5072066;28;20228;-57
2022/04/23 03:44:07;;;;;;;9.33;8.43;;;9.30;99.90;;;;;;5071874;28;20201;-59
2022/04/23 03:46:34;;;;;;;9.03;8.23;;;9.20;99.90;;;;;;5072066;28;20209;-57
2022/04/23 03:49:01;;;;;;;9.50;8.57;;;9.20;99.90;;;;;;5072013;28;20213;-57
2022/04/23 03:51:27;;;;;;;9.93;8.93;;;9.20;99.90;;;;;;5071613;28;20236;-57
2022/04/23 03:53:55;;;;;;;9.80;8.90;;;9.20;99.90;;;;;;5071546;28;20625;-57
2022/04/23 03:56:24;;;;;;;9.73;8.83;;;9.20;99.90;;;;;;5071912;28;20590;-57
2022/04/23 03:58:51;;;;;;;9.93;8.93;;;9.20;99.90;;;;;;5071815;28;20223;-58
2022/04/23 04:01:18;;;;;;;11.63;9.83;;;9.20;99.90;;;;;;5071873;28;20263;-57
2022/04/23 04:03:44;;;;;;;10.30;9.27;;;9.20;99.90;;;;;;5071626;28;20721;-57
2022/04/23 04:06:11;;;;;;;9.97;8.97;;;9.10;99.90;;;;;;5071622;28;20709;-57
2022/04/23 04:08:38;;;;;;;10.40;9.20;;;9.20;99.90;;;;;;5071778;28;20214;-57
2022/04/23 04:11:05;;;;;;;11.07;9.47;;;9.20;99.90;;;;;;5074542;28;20228;-58
2022/04/23 04:13:33;;;;;;;10.37;9.37;;;9.20;99.90;;;;;;5075610;28;20224;-56
2022/04/23 04:16:00;;;;;;;11.07;9.97;;;9.20;99.90;;;;;;5075666;28;20201;-56
2022/04/23 04:18:26;;;;;;;10.20;9.20;;;9.30;99.90;;;;;;5075680;28;20209;-57
2022/04/23 04:20:55;;;;;;;9.90;8.90;;;9.30;99.90;;;;;;5075776;28;20282;-57
2022/04/23 04:23:23;;;;;;;10.53;9.37;;;9.20;99.90;;;;;;5075517;28;20204;-57
2022/04/23 04:25:50;;;;;;;10.73;9.67;;;9.20;99.90;;;;;;5075750;28;20554;-57
2022/04/23 04:28:17;;;;;;;10.47;9.47;;;9.20;99.90;;;;;;5075681;28;20262;-57
2022/04/23 04:33:29;;;;;;;10.60;9.50;;;9.20;99.90;;;;;;5075235;28;20227;-57
2022/04/23 04:35:56;;;;;;;10.97;9.87;;;9.20;99.90;;;;;;5075627;28;20405;-57
2022/04/23 04:38:23;;;;;;;10.63;9.53;;;9.30;99.90;;;;;;5075495;28;20213;-56
2022/04/23 04:40:49;;;;;;;12.13;9.67;;;9.40;99.90;;;;;;5075702;28;20623;-57
2022/04/23 04:43:16;;;;;;;10.70;9.70;;;9.40;99.90;;;;;;5075259;28;20801;-57
2022/04/23 04:45:44;;;;;;;10.20;9.13;;;9.50;99.90;;;;;;5075139;28;20209;-57
2022/04/23 04:48:11;;;;;;;9.50;8.60;;;9.50;99.90;;;;;;5075500;28;20212;-57
2022/04/23 04:50:38;;;;;;;11.63;9.47;;;9.60;99.90;;;;;;5075108;28;20241;-57
2022/04/23 04:53:05;;;;;;;10.07;9.03;;;9.70;99.90;;;;;;5074884;28;20208;-57
2022/04/23 04:55:33;;;;;;;10.97;9.33;;;9.90;99.90;;;;;;5074900;28;20224;-57
2022/04/23 04:58:00;;;;;;;10.60;9.60;;;10.00;99.90;;;;;;5074778;28;20291;-57
2022/04/23 05:00:27;;;;;;;9.30;8.40;;;10.20;99.90;;;;;;5075022;28;20229;-56
2022/04/23 05:02:55;;;;;;;9.83;8.93;;;10.30;99.90;;;;;;5075038;28;20204;-57
2022/04/23 05:05:21;;;;;;;9.17;8.27;;;10.30;99.90;;;;;;5074440;28;20664;-57
2022/04/23 05:07:48;;;;;;;10.10;8.80;;;10.40;99.90;;;;;;5074778;28;20593;-58
2022/04/23 05:10:15;;;;;;;9.70;8.80;;;10.50;99.90;;;;;;5074638;28;20286;-57
2022/04/23 05:12:41;;;;;;;10.10;9.10;;;10.70;99.90;;;;;;5074573;28;20220;-57
2022/04/23 05:15:11;;;;;;;9.40;8.50;;;10.90;99.90;;;;;;5074590;28;20224;-57
2022/04/23 05:17:39;;;;;;;8.77;7.97;;;11.10;99.90;;;;;;5074746;28;20251;-57
2022/04/23 05:20:08;;;;;;;8.00;7.27;;;11.20;99.90;;;;;;5074467;28;20684;-56
2022/04/23 05:22:34;;;;;;;7.80;7.00;;;11.30;99.90;;;;;;5074410;28;20209;-57
2022/04/23 05:25:01;;;;;;;6.93;6.30;;;11.50;99.90;;;;;;5074271;28;20211;-57
2022/04/23 05:27:28;;;;;;;7.50;6.80;;;11.70;99.90;;;;;;5074751;28;20209;-57
2022/04/23 05:29:54;;;;;;;6.30;5.70;;;11.80;99.90;;;;;;5074784;28;20209;-57
2022/04/23 05:32:21;;;;;;;6.50;5.90;;;12.00;99.90;;;;;;5074425;28;20225;-57
2022/04/23 05:34:48;;;;;;;6.60;6.00;;;12.00;99.90;;;;;;5074142;28;20275;-56
2022/04/23 05:37:16;;;;;;;6.33;5.73;;;12.10;99.90;;;;;;5074337;28;20393;-57
2022/04/23 05:39:42;;;;;;;6.43;5.83;;;12.20;99.90;;;;;;5074133;28;20627;-57
2022/04/23 05:42:09;;;;;;;6.57;5.90;;;12.20;99.90;;;;;;5074151;28;20315;-57
2022/04/23 05:44:36;;;;;;;5.97;5.37;;;12.30;99.90;;;;;;5074180;28;20204;-57
2022/04/23 05:47:03;;;;;;;6.53;5.93;;;12.30;99.90;;;;;;5074082;28;20205;-57
2022/04/23 05:49:29;;;;;;;6.17;5.33;;;12.40;99.90;;;;;;5074169;28;20212;-57
2022/04/23 05:51:56;;;;;;;6.20;5.60;;;12.40;99.90;;;;;;5073905;28;20236;-56
2022/04/23 05:54:24;;;;;;;6.00;5.27;;;12.30;99.90;;;;;;5073569;28;20302;-57
2022/04/23 05:56:51;;;;;;;7.07;5.30;;;12.20;99.90;;;;;;5074443;28;20212;-57
2022/04/23 05:59:17;;;;;;;5.67;5.17;;;12.30;99.90;;;;;;5073940;28;20259;-57
2022/04/23 06:01:44;;;;;;;5.07;4.60;;;12.80;99.90;;;;;;5073837;28;20301;-57
2022/04/23 06:04:11;;;;;;;5.63;4.80;;;13.10;99.90;;;;;;5073563;28;20210;-57
2022/04/23 06:06:37;;;;;;;5.50;5.00;;;13.30;99.90;;;;;;5073692;28;20303;-57
2022/04/23 06:09:04;;;;;;;5.17;4.63;;;13.50;99.90;;;;;;5073570;28;20266;-57
2022/04/23 06:11:32;;;;;;;5.40;4.90;;;13.50;99.90;;;;;;5073688;28;20225;-56
2022/04/23 06:13:59;;;;;;;6.37;5.70;;;13.40;99.90;;;;;;5073452;28;20236;-57
2022/04/23 06:16:25;;;;;;;5.20;4.70;;;13.30;99.90;;;;;;5073478;28;20209;-57
2022/04/23 06:18:52;;;;;;;5.60;4.63;;;13.10;99.90;;;;;;5073513;28;20209;-57
2022/04/23 06:21:19;;;;;;;5.13;4.63;;;12.90;99.90;;;;;;5073229;28;20286;-57
2022/04/23 06:23:46;;;;;;;5.70;5.10;;;13.00;99.90;;;;;;5073048;28;20197;-57
2022/04/23 06:26:13;;;;;;;4.80;4.40;;;13.00;99.90;;;;;;5073599;28;20299;-57
2022/04/23 06:28:41;;;;;;;5.03;4.53;;;12.80;99.90;;;;;;5073486;28;20205;-57
2022/04/23 06:31:07;;;;;;;4.70;4.30;;;12.80;99.90;;;;;;5073231;28;20278;-57
2022/04/23 06:33:34;;;;;;;4.93;4.53;;;12.80;99.90;;;;;;5072552;28;20209;-57
2022/04/23 06:36:01;;;;;;;5.50;4.83;;;12.80;99.90;;;;;;5072966;28;20728;-57
2022/04/23 06:38:27;;;;;;;5.67;4.53;;;12.80;99.90;;;;;;5073197;28;20239;-57
2022/04/23 06:40:54;;;;;;;4.70;4.23;;;12.80;99.90;;;;;;5073117;28;20256;-57
2022/04/23 06:43:21;;;;;;;4.87;4.47;;;12.90;99.90;;;;;;5073089;28;20205;-57
2022/04/23 06:45:49;;;;;;;4.53;4.13;;;12.80;99.90;;;;;;5073010;28;20213;-57
2022/04/23 06:48:15;;;;;;;4.50;4.10;;;12.80;99.90;;;;;;5072914;28;20209;-56
2022/04/23 06:50:42;;;;;;;6.10;4.00;;;12.90;99.90;;;;;;5072665;28;20241;-57
2022/04/23 06:53:09;;;;;;;4.53;4.13;;;12.90;99.90;;;;;;5072814;28;20216;-57
2022/04/23 06:55:36;;;;;;;4.80;4.30;;;13.00;99.90;;;;;;5072718;28;20278;-56
2022/04/23 06:58:02;;;;;;;4.37;3.70;;;13.10;99.90;;;;;;5072799;28;20220;-57
2022/04/23 07:00:29;;;;;;;4.10;3.70;;;13.20;99.90;;;;;;5072613;28;20252;-57
2022/04/23 07:02:57;;;;;;;4.30;3.90;;;13.40;99.90;;;;;;5072646;28;20212;-57
2022/04/23 07:05:24;;;;;;;4.03;3.63;;;13.60;99.90;;;;;;5072233;28;20209;-56
2022/04/23 07:08:02;;;;;;;3.90;3.50;;;13.90;99.90;;;;;;5072899;28;20255;-57
2022/04/23 07:10:30;;;;;;;4.40;3.97;;;14.00;99.90;;;;;;5072593;28;20235;-57
2022/04/23 07:12:58;;;;;;;4.83;4.30;;;14.10;99.90;;;;;;5072557;28;20205;-57
2022/04/23 07:15:27;;;;;;;4.53;4.13;;;14.10;99.90;;;;;;5072382;28;20606;-57
2022/04/23 07:17:54;;;;;;;4.20;3.80;;;14.10;99.90;;;;;;5072361;28;20734;-57
2022/04/23 07:20:23;;;;;;;4.93;4.10;;;14.20;99.90;;;;;;5072426;28;20205;-57
2022/04/23 07:25:31;;;;;;;4.17;3.77;;;14.50;99.90;;;;;;5059653;28;20205;-57
2022/04/23 07:27:58;;;;;;;4.17;3.77;;;14.60;99.90;;;;;;5072690;28;20215;-57
2022/04/23 07:30:25;;;;;;;5.60;4.03;;;14.70;99.90;;;;;;5071980;28;20660;-57
2022/04/23 07:32:53;;;;;;;4.97;4.47;;;15.00;99.90;;;;;;5072376;28;20683;-57
2022/04/23 07:38:12;;;;;;;4.40;4.00;;;15.30;99.90;;;;;;5072188;28;20203;-57
2022/04/23 07:40:40;;;;;;;5.07;4.23;;;15.20;99.90;;;;;;5072517;28;20224;-57
2022/04/23 07:43:09;;;;;;;6.30;5.07;;;14.90;99.90;;;;;;5072484;28;20242;-57
2022/04/23 07:45:36;;;;;;;5.23;4.73;;;14.70;99.90;;;;;;5071340;28;20208;-57
2022/04/23 07:48:02;;;;;;;5.13;4.37;;;14.90;99.90;;;;;;5072342;28;20205;-57
2022/04/23 07:50:29;;;;;;;4.40;4.00;;;15.20;99.90;;;;;;5072422;28;20248;-56
2022/04/23 07:52:56;;;;;;;6.00;4.37;;;15.50;99.90;;;;;;5072216;28;20204;-56
2022/04/23 07:55:24;;;;;;;6.07;4.30;;;15.80;99.40;;;;;;5072017;28;20217;-56
2022/04/23 07:57:50;;;;;;;5.23;4.73;;;16.10;99.00;;;;;;5072618;28;20288;-56
2022/04/23 08:00:18;;;;;;;5.60;4.73;;;16.40;98.20;;;;;;5072279;28;20204;-57
2022/04/23 08:02:44;;;;;;;5.10;4.53;;;16.50;97.70;;;;;;5072967;28;20235;-56
2022/04/23 08:05:12;;;;;;;5.00;4.50;;;16.50;97.80;;;;;;5072072;28;20200;-58
2022/04/23 08:07:39;;;;;;;5.27;4.70;;;16.60;97.50;;;;;;5072336;28;20236;-57
2022/04/23 08:10:08;;;;;;;6.13;4.70;;;16.80;97.20;;;;;;5072979;28;20676;-57
2022/04/23 08:12:36;;;;;;;5.07;4.57;;;16.90;96.90;;;;;;5072757;28;20201;-57
2022/04/23 08:15:03;;;;;;;5.10;4.60;;;17.00;96.40;;;;;;5072031;28;20699;-57
2022/04/23 08:17:30;;;;;;;5.03;4.53;;;16.80;96.60;;;;;;5072556;28;20205;-57
2022/04/23 08:19:57;;;;;;;5.80;4.70;;;16.60;96.90;;;;;;5072290;28;20205;-57
2022/04/23 08:22:24;;;;;;;5.50;4.80;;;16.50;96.70;;;;;;5072350;28;20233;-57
2022/04/23 08:24:50;;;;;;;5.53;4.80;;;16.40;96.90;;;;;;5072385;28;20208;-57
2022/04/23 08:27:17;;;;;;;4.60;4.20;;;16.40;97.00;;;;;;5072129;28;20205;-57
2022/04/23 08:32:29;;;;;;;4.43;4.03;;;16.20;97.00;;;;;;5071988;28;20598;-57
2022/04/23 08:34:56;;;;;;;4.80;4.30;;;16.10;97.10;;;;;;5071623;28;20243;-57
2022/04/23 08:37:24;;;;;;;4.37;3.97;;;15.90;96.90;;;;;;5071915;28;20231;-57
2022/04/23 08:39:51;;;;;;;4.33;3.93;;;15.70;97.20;;;;;;5072174;28;20291;-57
2022/04/23 08:42:18;;;;;;;3.80;3.47;;;15.70;97.30;;;;;;5068735;28;20209;-56
2022/04/23 08:44:46;;;;;;;4.93;4.10;;;15.80;97.50;;;;;;5071553;28;20665;-56
2022/04/23 08:47:16;;;;;;;4.57;3.73;;;15.80;97.20;;;;;;5071252;28;20209;-64
2022/04/23 08:49:43;;;;;;;4.63;3.60;;;16.00;97.00;;;;;;5071667;28;20208;-59
2022/04/23 08:52:16;;;;;;;4.50;3.53;;;15.90;96.90;;;;;;5071046;28;20282;-58
2022/04/23 08:54:43;;;;;;;3.60;3.30;;;15.60;97.10;;;;;;5071126;28;20232;-58
2022/04/23 08:57:10;;;;;;;4.37;3.73;;;15.50;97.40;;;;;;5074030;28;20669;-57
2022/04/23 08:59:38;;;;;;;6.43;3.47;;;15.50;97.40;;;;;;5074891;28;20209;-59
2022/04/23 09:02:13;;;;;;;5.40;3.27;;;15.40;97.40;;;;;;5074674;28;20236;-57
2022/04/23 09:04:42;;;;;;;3.90;3.50;;;15.30;97.50;;;;;;5074755;28;20287;-57
2022/04/23 09:07:18;;;;;;;3.20;2.90;;;15.40;97.70;;;;;;5074888;28;20679;-57
2022/04/23 09:09:49;;;;;;;3.33;3.03;;;15.50;97.50;;;;;;5075049;28;20519;-57
2022/04/23 09:12:17;;;;;;;3.80;3.20;;;15.60;97.20;;;;;;5074634;28;20253;-57
2022/04/23 09:14:44;;;;;;;3.80;3.07;;;15.80;97.20;;;;;;5074870;28;20209;-57
2022/04/23 09:25:55;;;;;;;4.13;3.70;;;16.20;96.30;;;;;;5012054;28;20286;-57
2022/04/23 09:28:23;;;;;;;4.30;3.90;;;16.20;96.20;;;;;;5012707;28;20211;-57
2022/04/23 09:30:51;;;;;;;4.87;3.53;;;16.10;96.20;;;;;;5040276;28;20586;-57
2022/04/23 09:33:27;;;;;;;6.97;3.70;;;16.00;96.20;;;;;;5074263;28;20579;-58
2022/04/23 09:35:55;;;;;;;4.30;3.90;;;16.10;96.20;;;;;;5074216;28;20228;-58
2022/04/23 09:38:23;;;;;;;4.27;3.60;;;16.20;96.30;;;;;;5074066;28;20205;-58
2022/04/23 09:40:51;;;;;;;3.97;3.57;;;16.20;95.90;;;;;;5074651;28;20233;-58
2022/04/23 09:43:26;;;;;;;4.90;3.80;;;16.10;95.90;;;;;;5074546;28;20586;-57
2022/04/23 09:46:04;;;;;;;6.17;3.60;;;16.00;95.90;;;;;;5074692;28;20258;-57
2022/04/23 09:48:32;;;;;;;4.37;3.93;;;16.00;95.80;;;;;;5074674;28;20236;-57
2022/04/23 09:50:59;;;;;;;3.70;3.40;;;16.10;95.80;;;;;;5073969;28;20240;-58
2022/04/23 09:53:27;;;;;;;4.27;3.60;;;16.10;95.90;;;;;;5074336;28;20227;-59
2022/04/23 09:55:59;;;;;;;4.17;3.77;;;16.20;96.00;;;;;;5073002;28;20646;-59
2022/04/23 09:58:26;;;;;;;4.27;3.60;;;16.20;95.90;;;;;;5074590;28;20726;-58
2022/04/23 10:00:55;;;;;;;4.53;3.70;;;16.50;95.60;;;;;;5074261;28;20779;-57
2022/04/23 10:03:28;;;;;;;4.87;3.53;;;16.60;95.20;;;;;;5074070;28;20239;-57
2022/04/23 10:05:56;;;;;;;3.67;3.33;;;16.70;95.40;;;;;;5074068;28;20225;-59
2022/04/23 10:08:25;;;;;;;5.47;3.83;;;16.70;95.10;;;;;;5073351;28;20204;-58
2022/04/23 10:10:54;;;;;;;4.03;3.63;;;16.50;95.30;;;;;;5074079;28;20297;-57
2022/04/23 10:13:23;;;;;;;3.27;2.97;;;16.40;95.50;;;;;;5074221;28;20212;-58
2022/04/23 10:15:52;;;;;;;6.10;3.53;;;16.40;95.60;;;;;;5073959;28;20229;-58
2022/04/23 10:18:19;;;;;;;4.57;3.80;;;16.50;95.80;;;;;;5074521;28;20258;-57
2022/04/23 10:20:54;;;;;;;4.57;3.50;;;16.60;95.10;;;;;;5073288;28;20241;-58
2022/04/23 10:23:46;;;;;;;5.33;3.93;;;16.60;94.90;;;;;;5073736;28;20208;-59
2022/04/23 10:26:34;;;;;;;5.10;3.90;;;16.40;95.00;;;;;;5073739;28;20295;-58
2022/04/23 10:29:02;;;;;;;5.70;4.03;;;16.20;95.50;;;;;;5074447;28;20216;-62
2022/04/23 10:31:29;;;;;;;4.47;3.83;;;16.10;95.60;;;;;;5073580;28;20312;-60
2022/04/23 10:33:55;;;;;;;4.73;4.17;;;16.20;95.70;;;;;;5074449;28;20262;-61
2022/04/23 10:36:23;;;;;;;4.47;4.07;;;16.70;95.30;;;;;;5074123;28;20697;-57
2022/04/23 10:39:12;;;;;;;5.77;5.10;;;17.20;94.60;;;;;;5075012;28;20288;-61
2022/04/23 10:41:39;;;;;;;6.57;5.50;;;17.50;94.30;;;;;;5074851;28;20716;-58
2022/04/23 10:44:06;;;;;;;4.47;4.07;;;17.70;93.80;;;;;;5074707;28;20212;-57
2022/04/23 10:46:48;;;;;;;4.60;4.10;;;17.80;93.60;;;;;;5075377;28;20235;-59
2022/04/23 10:49:17;;;;;;;4.73;3.97;;;17.90;93.30;;;;;;5074801;28;20228;-57
2022/04/23 10:51:46;;;;;;;5.10;4.60;;;18.00;93.20;;;;;;5073795;28;20302;-58
2022/04/23 10:54:16;;;;;;;5.80;4.60;;;18.00;93.10;;;;;;5074011;28;20243;-57
2022/04/23 10:56:43;;;;;;;4.70;4.03;;;18.00;93.00;;;;;;5073691;28;20307;-57
2022/04/23 10:59:32;;;;;;;4.80;4.10;;;18.00;92.80;;;;;;5074387;28;20212;-57
2022/04/23 11:02:05;;;;;;;7.10;4.43;;;18.10;93.00;;;;;;5073715;28;20232;-57
2022/04/23 11:04:31;;;;;;;5.70;4.57;;;18.10;93.00;;;;;;5074109;28;20307;-57
2022/04/23 11:12:33;;;;;;;5.70;5.03;;;17.90;92.90;;;;;;5073310;28;20303;-56
2022/04/23 11:15:01;;;;;;;6.20;4.73;;;17.90;92.80;;;;;;5073081;28;20262;-56
2022/04/23 11:17:58;;;;;;;6.15;4.80;;;17.80;92.90;;;;;;5073016;28;20604;-57
2022/04/23 11:20:33;;;;;;;5.50;4.93;;;17.70;93.10;;;;;;5072794;28;20209;-57
2022/04/23 11:23:01;;;;;;;8.03;5.03;;;17.70;93.20;;;;;;5072763;28;20204;-56
2022/04/23 11:25:31;;;;;;;5.70;4.87;;;17.70;93.10;;;;;;5072218;28;20611;-56
2022/04/23 11:28:12;;;;;;;5.72;4.43;;;17.80;93.00;;;;;;5072987;28;20216;-57
2022/04/23 11:30:39;;;;;;;5.13;4.57;;;18.00;92.70;;;;;;5072490;28;20254;-58
2022/04/23 11:33:13;;;;;;;5.90;5.20;;;18.30;92.50;;;;;;5072862;28;20258;-57
2022/04/23 11:35:40;;;;;;;5.95;4.82;;;18.50;92.00;;;;;;5072202;28;20220;-57
2022/04/23 11:38:17;;;;;;;5.45;4.38;;;18.60;92.00;;;;;;5072577;28;20291;-57
2022/04/23 11:40:45;;;;;;;5.57;4.80;;;18.50;92.00;;;;;;5072705;28;20235;-58
2022/04/23 11:43:13;;;;;;;6.07;4.43;;;18.30;91.90;;;;;;5072686;28;20580;-57
2022/04/23 11:45:47;;;;;;;5.45;4.93;;;18.10;92.20;;;;;;5072197;28;20296;-57
2022/04/23 11:48:14;;;;;;;6.43;4.95;;;18.10;92.30;;;;;;5073902;28;20209;-57
2022/04/23 11:50:40;;;;;;;6.17;4.90;;;18.10;92.30;;;;;;5072961;28;20239;-57
2022/04/23 11:53:09;;;;;;;7.20;4.90;;;18.20;92.40;;;;;;5072376;28;20204;-57
2022/04/23 11:55:36;;;;;;;5.47;4.70;;;18.40;92.30;;;;;;5072079;28;20649;-57
2022/04/23 11:58:05;;;;;;;5.97;4.50;;;18.80;91.80;;;;;;5072382;28;20208;-57
2022/04/23 12:00:33;;;;;;;6.03;4.45;;;19.00;91.70;;;;;;5072279;28;20232;-61
2022/04/23 12:03:01;;;;;;;5.10;4.60;;;19.10;91.30;;;;;;5072246;28;20212;-57
2022/04/23 12:05:29;;;;;;;8.07;5.10;;;19.40;90.80;;;;;;5072079;28;20216;-57
2022/04/23 12:07:57;;;;;;;5.78;4.82;;;19.50;90.60;;;;;;5072262;28;20213;-57
2022/04/23 12:10:25;;;;;;;5.25;4.72;;;19.50;90.30;;;;;;5072396;28;20208;-57
2022/04/23 12:12:52;;;;;;;5.38;4.80;;;19.20;90.50;;;;;;5072176;28;20212;-57
2022/04/23 12:15:21;;;;;;;5.97;4.78;;;19.00;90.90;;;;;;5071820;28;20201;-57
2022/04/23 12:17:49;;;;;;;5.10;4.60;;;19.00;90.90;;;;;;5072170;28;20323;-57
2022/04/23 12:20:19;;;;;;;6.07;5.18;;;19.10;90.70;;;;;;5072497;28;20685;-57
2022/04/23 12:22:58;;;;;;;7.43;5.22;;;19.10;90.60;;;;;;5072715;28;20213;-57
2022/04/23 12:25:25;;;;;;;8.02;5.40;;;19.40;90.70;;;;;;5072722;28;20200;-57
2022/04/23 12:27:56;;;;;;;6.68;4.88;;;19.70;90.40;;;;;;5073130;28;20211;-57
2022/04/23 12:41:56;;;;;;;5.78;4.93;;;20.00;88.50;;;;;;5056551;28;20270;-57
2022/04/23 12:44:24;;;;;;;4.97;4.57;;;19.90;88.60;;;;;;5075558;28;20208;-57
2022/04/23 12:46:59;;;;;;;8.32;5.25;;;19.70;88.70;;;;;;5075259;28;20240;-57
2022/04/23 12:49:45;;;;;;;6.07;5.32;;;19.60;89.30;;;;;;5075837;28;20219;-59
2022/04/23 12:52:14;;;;;;;8.45;5.30;;;19.60;89.10;;;;;;5075110;28;20323;-57
2022/04/23 12:54:41;;;;;;;6.72;5.25;;;19.40;89.50;;;;;;5075235;28;20209;-57
2022/04/23 12:57:15;;;;;;;6.95;5.28;;;19.20;89.40;;;;;;5074845;28;20221;-57
2022/04/23 12:59:41;;;;;;;8.32;6.00;;;19.10;89.90;;;;;;5075813;28;20629;-57
2022/04/23 13:02:10;;;;;;;6.22;5.28;;;19.10;89.80;;;;;;5075343;28;20302;-57
2022/04/23 13:04:36;;;;;;;6.65;5.88;;;19.00;89.70;;;;;;5074790;28;20700;-57
2022/04/23 13:09:48;;;;;;;6.78;6.03;;;19.20;89.90;;;;;;5075203;28;20204;-57
2022/04/23 13:12:14;;;;;;;6.70;5.90;;;19.20;89.80;;;;;;5074859;28;20236;-57
2022/04/23 13:14:43;;;;;;;6.30;5.70;;;19.50;89.40;;;;;;5074944;28;20633;-57
2022/04/23 13:17:11;;;;;;;6.03;5.45;;;19.50;88.40;;;;;;5075148;28;20290;-57
2022/04/23 13:19:38;;;;;;;7.00;6.30;;;19.40;88.60;;;;;;5075128;28;20254;-57
2022/04/23 13:22:05;;;;;;;6.78;5.78;;;19.20;88.80;;;;;;5074770;28;20312;-57
2022/04/23 13:24:31;;;;;;;6.57;5.93;;;19.10;89.10;;;;;;5074384;28;20205;-57
2022/04/23 13:26:58;;;;;;;7.38;6.43;;;19.00;89.80;;;;;;5074969;28;20197;-57
2022/04/23 13:29:25;;;;;;;7.20;6.50;;;18.60;90.20;;;;;;5074574;28;20733;-57